sensor_id;sensor_type;location;lat;lon;timestamp;P1;durP1;ratioP1;P2;durP2;ratioP2
58982;SDS011;44771;49.982;8.560;2022-11-15T00:02:53;14.93;;;13.35;;
58982;SDS011;44771;49.982;8.560;2022-11-15T00:07:58;19.37;;;15.90;;
58982;SDS011;44771;49.982;8.560;2022-11-15T00:13:04;17.15;;;14.75;;
58982;SDS011;44771;49.982;8.560;2022-11-15T00:18:09;21.15;;;14.85;;
58982;SDS011;44771;49.982;8.560;2022-11-15T00:23:21;24.23;;;17.25;;
58982;SDS011;44771;49.982;8.560;2022-11-15T00:28:24;21.95;;;14.87;;
58982;SDS011;44771;49.982;8.560;2022-11-15T00:33:26;22.95;;;16.70;;
58982;SDS011;44771;49.982;8.560;2022-11-15T00:38:35;20.92;;;15.50;;
58982;SDS011;44771;49.982;8.560;2022-11-15T00:43:43;17.10;;;15.27;;
58982;SDS011;44771;49.982;8.560;2022-11-15T00:54:17;27.37;;;14.93;;
58982;SDS011;44771;49.982;8.560;2022-11-15T00:59:41;18.85;;;14.65;;
58982;SDS011;44771;49.982;8.560;2022-11-15T01:04:50;18.00;;;14.73;;
58982;SDS011;44771;49.982;8.560;2022-11-15T01:15:34;15.00;;;12.93;;
58982;SDS011;44771;49.982;8.560;2022-11-15T01:20:45;22.52;;;14.30;;
58982;SDS011;44771;49.982;8.560;2022-11-15T01:26:02;19.33;;;14.80;;
58982;SDS011;44771;49.982;8.560;2022-11-15T01:31:14;16.58;;;13.35;;
58982;SDS011;44771;49.982;8.560;2022-11-15T01:36:21;18.20;;;15.45;;
58982;SDS011;44771;49.982;8.560;2022-11-15T01:41:28;23.25;;;15.00;;
58982;SDS011;44771;49.982;8.560;2022-11-15T01:46:44;16.35;;;14.52;;
58982;SDS011;44771;49.982;8.560;2022-11-15T01:52:14;19.17;;;14.43;;
58982;SDS011;44771;49.982;8.560;2022-11-15T02:03:44;22.85;;;15.38;;
58982;SDS011;44771;49.982;8.560;2022-11-15T02:09:35;21.05;;;15.63;;
58982;SDS011;44771;49.982;8.560;2022-11-15T02:25:52;21.15;;;15.50;;
58982;SDS011;44771;49.982;8.560;2022-11-15T02:31:17;16.23;;;14.15;;
58982;SDS011;44771;49.982;8.560;2022-11-15T02:36:43;17.00;;;14.18;;
58982;SDS011;44771;49.982;8.560;2022-11-15T02:42:19;16.62;;;13.98;;
58982;SDS011;44771;49.982;8.560;2022-11-15T02:47:44;15.70;;;13.25;;
58982;SDS011;44771;49.982;8.560;2022-11-15T02:53:25;16.10;;;13.73;;
58982;SDS011;44771;49.982;8.560;2022-11-15T02:58:41;18.73;;;13.82;;
58982;SDS011;44771;49.982;8.560;2022-11-15T03:04:17;21.55;;;14.18;;
58982;SDS011;44771;49.982;8.560;2022-11-15T03:21:02;17.67;;;15.23;;
58982;SDS011;44771;49.982;8.560;2022-11-15T03:26:15;20.45;;;13.43;;
58982;SDS011;44771;49.982;8.560;2022-11-15T03:31:19;18.50;;;12.00;;
58982;SDS011;44771;49.982;8.560;2022-11-15T03:36:27;17.92;;;14.55;;
58982;SDS011;44771;49.982;8.560;2022-11-15T03:41:35;17.17;;;14.13;;
58982;SDS011;44771;49.982;8.560;2022-11-15T03:46:42;16.55;;;13.93;;
58982;SDS011;44771;49.982;8.560;2022-11-15T03:51:54;21.85;;;14.68;;
58982;SDS011;44771;49.982;8.560;2022-11-15T03:56:58;19.05;;;14.05;;
58982;SDS011;44771;49.982;8.560;2022-11-15T04:02:04;18.87;;;14.83;;
58982;SDS011;44771;49.982;8.560;2022-11-15T04:07:20;20.85;;;14.38;;
58982;SDS011;44771;49.982;8.560;2022-11-15T04:12:29;17.20;;;14.68;;
58982;SDS011;44771;49.982;8.560;2022-11-15T04:17:38;22.35;;;14.15;;
58982;SDS011;44771;49.982;8.560;2022-11-15T04:22:58;18.02;;;14.93;;
58982;SDS011;44771;49.982;8.560;2022-11-15T04:28:12;18.75;;;14.73;;
58982;SDS011;44771;49.982;8.560;2022-11-15T04:33:21;20.45;;;14.60;;
58982;SDS011;44771;49.982;8.560;2022-11-15T04:38:41;18.20;;;14.52;;
58982;SDS011;44771;49.982;8.560;2022-11-15T04:43:43;17.90;;;14.35;;
58982;SDS011;44771;49.982;8.560;2022-11-15T04:48:54;19.65;;;15.40;;
58982;SDS011;44771;49.982;8.560;2022-11-15T04:54:00;17.83;;;14.13;;
58982;SDS011;44771;49.982;8.560;2022-11-15T04:59:02;17.98;;;14.87;;
58982;SDS011;44771;49.982;8.560;2022-11-15T05:04:04;19.23;;;14.45;;
58982;SDS011;44771;49.982;8.560;2022-11-15T05:09:07;22.25;;;16.15;;
58982;SDS011;44771;49.982;8.560;2022-11-15T05:14:09;19.87;;;16.05;;
58982;SDS011;44771;49.982;8.560;2022-11-15T05:19:11;18.42;;;15.68;;
58982;SDS011;44771;49.982;8.560;2022-11-15T05:24:15;18.85;;;15.10;;
58982;SDS011;44771;49.982;8.560;2022-11-15T05:29:17;20.92;;;14.63;;
58982;SDS011;44771;49.982;8.560;2022-11-15T05:34:19;16.80;;;13.95;;
58982;SDS011;44771;49.982;8.560;2022-11-15T05:39:22;19.83;;;14.00;;
58982;SDS011;44771;49.982;8.560;2022-11-15T05:44:27;19.80;;;14.10;;
58982;SDS011;44771;49.982;8.560;2022-11-15T05:49:30;15.88;;;12.52;;
58982;SDS011;44771;49.982;8.560;2022-11-15T05:54:37;15.32;;;12.25;;
58982;SDS011;44771;49.982;8.560;2022-11-15T05:59:39;17.25;;;13.45;;
58982;SDS011;44771;49.982;8.560;2022-11-15T06:04:42;15.98;;;13.57;;
58982;SDS011;44771;49.982;8.560;2022-11-15T06:09:45;14.60;;;13.15;;
58982;SDS011;44771;49.982;8.560;2022-11-15T06:14:47;14.57;;;13.07;;
58982;SDS011;44771;49.982;8.560;2022-11-15T06:19:49;14.40;;;12.30;;
58982;SDS011;44771;49.982;8.560;2022-11-15T06:24:52;13.70;;;12.07;;
58982;SDS011;44771;49.982;8.560;2022-11-15T06:29:57;14.27;;;12.88;;
58982;SDS011;44771;49.982;8.560;2022-11-15T06:35:16;17.85;;;14.13;;
58982;SDS011;44771;49.982;8.560;2022-11-15T06:40:19;19.70;;;14.10;;
58982;SDS011;44771;49.982;8.560;2022-11-15T06:45:21;17.52;;;13.80;;
58982;SDS011;44771;49.982;8.560;2022-11-15T06:50:23;13.43;;;12.02;;
58982;SDS011;44771;49.982;8.560;2022-11-15T06:55:26;13.25;;;11.93;;
58982;SDS011;44771;49.982;8.560;2022-11-15T07:00:28;13.93;;;12.60;;
58982;SDS011;44771;49.982;8.560;2022-11-15T07:05:30;14.95;;;13.38;;
58982;SDS011;44771;49.982;8.560;2022-11-15T07:10:34;15.50;;;13.32;;
58982;SDS011;44771;49.982;8.560;2022-11-15T07:15:35;16.02;;;14.23;;
58982;SDS011;44771;49.982;8.560;2022-11-15T07:20:37;16.83;;;13.93;;
58982;SDS011;44771;49.982;8.560;2022-11-15T07:25:41;15.65;;;13.52;;
58982;SDS011;44771;49.982;8.560;2022-11-15T07:30:43;16.07;;;14.37;;
58982;SDS011;44771;49.982;8.560;2022-11-15T07:35:45;15.50;;;13.65;;
58982;SDS011;44771;49.982;8.560;2022-11-15T07:40:55;13.43;;;12.05;;
58982;SDS011;44771;49.982;8.560;2022-11-15T07:45:57;14.20;;;12.70;;
58982;SDS011;44771;49.982;8.560;2022-11-15T07:51:00;16.25;;;12.88;;
58982;SDS011;44771;49.982;8.560;2022-11-15T07:56:05;14.63;;;13.10;;
58982;SDS011;44771;49.982;8.560;2022-11-15T08:01:07;14.85;;;13.07;;
58982;SDS011;44771;49.982;8.560;2022-11-15T08:06:11;16.67;;;13.15;;
58982;SDS011;44771;49.982;8.560;2022-11-15T08:11:14;15.23;;;12.20;;
58982;SDS011;44771;49.982;8.560;2022-11-15T08:16:16;17.17;;;12.43;;
58982;SDS011;44771;49.982;8.560;2022-11-15T08:21:21;15.95;;;13.80;;
58982;SDS011;44771;49.982;8.560;2022-11-15T08:26:25;15.30;;;13.40;;
58982;SDS011;44771;49.982;8.560;2022-11-15T08:31:28;14.90;;;13.05;;
58982;SDS011;44771;49.982;8.560;2022-11-15T08:36:32;17.00;;;12.63;;
58982;SDS011;44771;49.982;8.560;2022-11-15T08:41:50;15.73;;;13.68;;
58982;SDS011;44771;49.982;8.560;2022-11-15T08:46:52;15.23;;;13.20;;
58982;SDS011;44771;49.982;8.560;2022-11-15T08:51:54;15.73;;;14.00;;
58982;SDS011;44771;49.982;8.560;2022-11-15T08:57:00;18.30;;;13.33;;
58982;SDS011;44771;49.982;8.560;2022-11-15T09:02:03;15.48;;;13.05;;
58982;SDS011;44771;49.982;8.560;2022-11-15T09:07:05;16.52;;;12.77;;
58982;SDS011;44771;49.982;8.560;2022-11-15T09:12:09;14.25;;;12.63;;
58982;SDS011;44771;49.982;8.560;2022-11-15T09:17:11;18.58;;;12.43;;
58982;SDS011;44771;49.982;8.560;2022-11-15T09:22:25;14.30;;;12.75;;
58982;SDS011;44771;49.982;8.560;2022-11-15T09:27:33;15.93;;;13.35;;
58982;SDS011;44771;49.982;8.560;2022-11-15T09:32:41;15.45;;;13.23;;
58982;SDS011;44771;49.982;8.560;2022-11-15T09:37:51;16.05;;;13.50;;
58982;SDS011;44771;49.982;8.560;2022-11-15T09:48:25;14.95;;;13.20;;
58982;SDS011;44771;49.982;8.560;2022-11-15T09:53:47;15.48;;;13.93;;
58982;SDS011;44771;49.982;8.560;2022-11-15T09:59:23;14.15;;;12.68;;
58982;SDS011;44771;49.982;8.560;2022-11-15T10:04:45;16.37;;;14.07;;
58982;SDS011;44771;49.982;8.560;2022-11-15T10:14:58;21.73;;;13.90;;
58982;SDS011;44771;49.982;8.560;2022-11-15T10:20:19;17.98;;;14.52;;
58982;SDS011;44771;49.982;8.560;2022-11-15T10:25:23;15.48;;;13.98;;
58982;SDS011;44771;49.982;8.560;2022-11-15T10:30:32;17.60;;;13.48;;
58982;SDS011;44771;49.982;8.560;2022-11-15T10:35:36;16.62;;;15.02;;
58982;SDS011;44771;49.982;8.560;2022-11-15T10:40:38;15.32;;;13.57;;
58982;SDS011;44771;49.982;8.560;2022-11-15T10:45:45;16.73;;;13.32;;
58982;SDS011;44771;49.982;8.560;2022-11-15T10:50:51;14.57;;;13.07;;
58982;SDS011;44771;49.982;8.560;2022-11-15T10:55:58;17.52;;;12.63;;
58982;SDS011;44771;49.982;8.560;2022-11-15T11:01:12;14.20;;;12.95;;
58982;SDS011;44771;49.982;8.560;2022-11-15T11:06:17;14.25;;;12.82;;
58982;SDS011;44771;49.982;8.560;2022-11-15T11:11:19;14.43;;;12.88;;
58982;SDS011;44771;49.982;8.560;2022-11-15T11:16:38;13.60;;;12.40;;
58982;SDS011;44771;49.982;8.560;2022-11-15T11:21:51;14.05;;;11.90;;
58982;SDS011;44771;49.982;8.560;2022-11-15T11:27:13;13.25;;;11.90;;
58982;SDS011;44771;49.982;8.560;2022-11-15T11:32:40;13.23;;;12.00;;
58982;SDS011;44771;49.982;8.560;2022-11-15T11:38:01;13.00;;;11.85;;
58982;SDS011;44771;49.982;8.560;2022-11-15T11:43:21;13.55;;;11.32;;
58982;SDS011;44771;49.982;8.560;2022-11-15T11:48:34;13.25;;;11.98;;
58982;SDS011;44771;49.982;8.560;2022-11-15T11:53:43;13.57;;;12.27;;
58982;SDS011;44771;49.982;8.560;2022-11-15T11:58:50;15.18;;;13.55;;
58982;SDS011;44771;49.982;8.560;2022-11-15T12:03:59;14.57;;;13.07;;
58982;SDS011;44771;49.982;8.560;2022-11-15T12:09:07;12.63;;;11.32;;
58982;SDS011;44771;49.982;8.560;2022-11-15T12:14:28;14.68;;;12.40;;
58982;SDS011;44771;49.982;8.560;2022-11-15T12:25:19;13.18;;;11.98;;
58982;SDS011;44771;49.982;8.560;2022-11-15T12:30:54;13.02;;;11.80;;
58982;SDS011;44771;49.982;8.560;2022-11-15T12:36:10;12.40;;;11.38;;
58982;SDS011;44771;49.982;8.560;2022-11-15T12:41:42;12.82;;;11.82;;
58982;SDS011;44771;49.982;8.560;2022-11-15T12:46:59;12.85;;;11.63;;
58982;SDS011;44771;49.982;8.560;2022-11-15T12:52:07;12.70;;;11.60;;
58982;SDS011;44771;49.982;8.560;2022-11-15T13:02:46;13.00;;;11.63;;
58982;SDS011;44771;49.982;8.560;2022-11-15T13:07:55;12.85;;;11.77;;
58982;SDS011;44771;49.982;8.560;2022-11-15T13:13:01;13.75;;;12.32;;
58982;SDS011;44771;49.982;8.560;2022-11-15T13:23:53;13.10;;;12.05;;
58982;SDS011;44771;49.982;8.560;2022-11-15T13:29:00;12.85;;;11.73;;
58982;SDS011;44771;49.982;8.560;2022-11-15T13:34:03;11.27;;;10.48;;
58982;SDS011;44771;49.982;8.560;2022-11-15T13:39:43;11.68;;;10.48;;
58982;SDS011;44771;49.982;8.560;2022-11-15T13:44:55;11.73;;;10.88;;
58982;SDS011;44771;49.982;8.560;2022-11-15T13:49:58;12.30;;;10.73;;
58982;SDS011;44771;49.982;8.560;2022-11-15T13:55:02;10.88;;;10.18;;
58982;SDS011;44771;49.982;8.560;2022-11-15T14:05:33;11.55;;;10.57;;
58982;SDS011;44771;49.982;8.560;2022-11-15T14:10:35;11.07;;;10.35;;
58982;SDS011;44771;49.982;8.560;2022-11-15T14:15:39;11.40;;;10.50;;
58982;SDS011;44771;49.982;8.560;2022-11-15T14:20:41;11.00;;;10.18;;
58982;SDS011;44771;49.982;8.560;2022-11-15T14:31:26;11.10;;;10.13;;
58982;SDS011;44771;49.982;8.560;2022-11-15T14:36:28;11.95;;;10.77;;
58982;SDS011;44771;49.982;8.560;2022-11-15T14:52:55;11.90;;;11.05;;
58982;SDS011;44771;49.982;8.560;2022-11-15T14:58:11;12.07;;;11.10;;
58982;SDS011;44771;49.982;8.560;2022-11-15T15:03:39;13.15;;;11.80;;
58982;SDS011;44771;49.982;8.560;2022-11-15T15:25:07;12.40;;;11.40;;
58982;SDS011;44771;49.982;8.560;2022-11-15T15:30:21;11.52;;;10.43;;
58982;SDS011;44771;49.982;8.560;2022-11-15T15:35:34;11.85;;;10.73;;
58982;SDS011;44771;49.982;8.560;2022-11-15T15:40:46;11.15;;;10.27;;
58982;SDS011;44771;49.982;8.560;2022-11-15T15:45:51;11.97;;;11.07;;
58982;SDS011;44771;49.982;8.560;2022-11-15T15:56:45;12.07;;;11.18;;
58982;SDS011;44771;49.982;8.560;2022-11-15T16:45:03;11.45;;;10.65;;
58982;SDS011;44771;49.982;8.560;2022-11-15T16:50:11;11.57;;;10.63;;
58982;SDS011;44771;49.982;8.560;2022-11-15T16:55:28;11.40;;;10.60;;
58982;SDS011;44771;49.982;8.560;2022-11-15T17:00:55;11.65;;;10.68;;
58982;SDS011;44771;49.982;8.560;2022-11-15T17:06:02;10.95;;;10.15;;
58982;SDS011;44771;49.982;8.560;2022-11-15T17:11:12;11.27;;;10.32;;
58982;SDS011;44771;49.982;8.560;2022-11-15T17:16:19;11.93;;;10.90;;
58982;SDS011;44771;49.982;8.560;2022-11-15T17:54:59;12.25;;;11.18;;
58982;SDS011;44771;49.982;8.560;2022-11-15T18:00:21;11.75;;;10.70;;
58982;SDS011;44771;49.982;8.560;2022-11-15T18:05:28;15.10;;;10.70;;
58982;SDS011;44771;49.982;8.560;2022-11-15T18:16:40;13.62;;;11.55;;
58982;SDS011;44771;49.982;8.560;2022-11-15T18:21:46;12.88;;;11.75;;
58982;SDS011;44771;49.982;8.560;2022-11-15T22:27:09;16.42;;;11.90;;
58982;SDS011;44771;49.982;8.560;2022-11-15T22:37:54;14.30;;;12.43;;
58982;SDS011;44771;49.982;8.560;2022-11-15T22:42:57;12.35;;;11.05;;
58982;SDS011;44771;49.982;8.560;2022-11-15T22:48:02;12.93;;;11.63;;
58982;SDS011;44771;49.982;8.560;2022-11-15T22:53:11;10.95;;;9.95;;
58982;SDS011;44771;49.982;8.560;2022-11-15T22:58:35;13.13;;;11.82;;
58982;SDS011;44771;49.982;8.560;2022-11-15T23:03:47;14.00;;;11.93;;
58982;SDS011;44771;49.982;8.560;2022-11-15T23:08:53;12.90;;;11.52;;
58982;SDS011;44771;49.982;8.560;2022-11-15T23:14:03;12.85;;;11.57;;
58982;SDS011;44771;49.982;8.560;2022-11-15T23:19:09;14.05;;;12.63;;
58982;SDS011;44771;49.982;8.560;2022-11-15T23:24:13;18.08;;;11.77;;
58982;SDS011;44771;49.982;8.560;2022-11-15T23:29:27;13.77;;;10.85;;
58982;SDS011;44771;49.982;8.560;2022-11-15T23:34:43;12.55;;;11.25;;
58982;SDS011;44771;49.982;8.560;2022-11-15T23:39:46;13.80;;;12.37;;
58982;SDS011;44771;49.982;8.560;2022-11-15T23:44:53;11.75;;;10.55;;
58982;SDS011;44771;49.982;8.560;2022-11-15T23:49:55;15.30;;;11.70;;
58982;SDS011;44771;49.982;8.560;2022-11-15T23:54:57;15.35;;;13.30;;
